Time;durP1;ratioP1;P1;durP2;ratioP2;P2;SDS_P1;SDS_P2;PMS_P1;PMS_P2;Temp;Humidity;BMP_temperature;BMP_pressure;BME280_temperature;BME280_humidity;BME280_pressure;Samples;Min_cycle;Max_cycle;Signal;HPM_P1;HPM_P2
2021/09/18 00:00:19;;;;;;;6.23;5.80;;;22.30;35.00;;;;;;4973458;28;20183;-58
2021/09/18 00:02:45;;;;;;;6.20;5.80;;;22.30;35.00;;;;;;4973185;28;20178;-54
2021/09/18 00:05:10;;;;;;;6.00;5.50;;;22.30;35.00;;;;;;4973300;28;20262;-58
2021/09/18 00:07:36;;;;;;;6.10;5.70;;;22.30;35.10;;;;;;4972864;28;20588;-56
2021/09/18 00:10:03;;;;;;;5.80;5.40;;;22.30;35.00;;;;;;4973122;28;20178;-56
2021/09/18 00:12:28;;;;;;;5.97;5.37;;;22.30;35.10;;;;;;4973288;28;20452;-57
2021/09/18 00:14:54;;;;;;;5.97;5.57;;;22.30;35.10;;;;;;4973217;28;20416;-54
2021/09/18 00:17:19;;;;;;;6.47;5.80;;;22.30;35.10;;;;;;4972711;28;20198;-55
2021/09/18 00:19:45;;;;;;;5.17;4.87;;;22.30;35.10;;;;;;4972867;28;20186;-56
2021/09/18 00:22:11;;;;;;;5.93;5.53;;;22.30;35.10;;;;;;4973209;28;20193;-57
2021/09/18 00:24:37;;;;;;;5.53;5.13;;;22.30;35.20;;;;;;4973178;28;20192;-57
2021/09/18 00:27:04;;;;;;;5.97;5.57;;;22.30;35.20;;;;;;4973029;28;20210;-55
2021/09/18 00:29:29;;;;;;;5.73;5.40;;;22.30;35.20;;;;;;4972894;28;20477;-55
2021/09/18 00:31:55;;;;;;;6.00;5.60;;;22.20;35.10;;;;;;4972758;28;20437;-59
2021/09/18 00:34:21;;;;;;;5.57;5.00;;;22.30;35.20;;;;;;4972815;28;20210;-57
2021/09/18 00:36:46;;;;;;;6.40;5.80;;;22.30;35.10;;;;;;4972164;28;20190;-58
2021/09/18 00:39:12;;;;;;;5.80;5.40;;;22.20;35.00;;;;;;4972540;28;20656;-61
2021/09/18 00:41:37;;;;;;;5.73;5.33;;;22.30;35.20;;;;;;4972880;28;20187;-58
2021/09/18 00:44:03;;;;;;;6.33;5.90;;;22.20;35.10;;;;;;4972972;28;20178;-57
2021/09/18 00:46:29;;;;;;;5.87;5.47;;;22.20;35.10;;;;;;4972621;28;20614;-57
2021/09/18 00:48:54;;;;;;;5.90;5.50;;;22.20;35.80;;;;;;4972566;28;20241;-56
2021/09/18 00:51:20;;;;;;;6.23;5.80;;;22.20;35.10;;;;;;4972865;28;20170;-58
2021/09/18 00:53:46;;;;;;;6.00;5.60;;;22.20;35.00;;;;;;4972850;28;20197;-57
2021/09/18 00:56:12;;;;;;;6.17;5.67;;;22.20;35.00;;;;;;4972852;28;20704;-59
2021/09/18 00:58:39;;;;;;;6.70;5.70;;;22.20;35.00;;;;;;4972693;28;20881;-58
2021/09/18 01:01:04;;;;;;;5.40;5.10;;;22.20;35.00;;;;;;4972531;28;20414;-58
2021/09/18 01:03:30;;;;;;;5.07;4.67;;;22.20;35.00;;;;;;4972617;28;20921;-59
2021/09/18 01:05:57;;;;;;;5.73;5.13;;;22.20;35.20;;;;;;4972856;28;20723;-58
2021/09/18 01:08:26;;;;;;;5.50;5.10;;;22.20;35.80;;;;;;4972448;28;20434;-58
2021/09/18 01:10:52;;;;;;;5.97;5.50;;;22.20;35.00;;;;;;4972712;28;20405;-54
2021/09/18 01:13:20;;;;;;;5.33;5.03;;;22.20;35.00;;;;;;4972757;28;20905;-56
2021/09/18 01:15:48;;;;;;;6.00;5.60;;;22.20;35.10;;;;;;4972460;28;20787;-57
2021/09/18 01:18:14;;;;;;;5.40;5.00;;;22.20;35.10;;;;;;4972301;28;20465;-56
2021/09/18 01:20:42;;;;;;;5.40;5.00;;;22.20;35.00;;;;;;4972515;28;20446;-57
2021/09/18 01:23:09;;;;;;;6.77;5.30;;;22.20;35.20;;;;;;4972403;28;20441;-57
2021/09/18 01:25:38;;;;;;;6.10;5.70;;;22.20;35.20;;;;;;4972495;28;20414;-55
2021/09/18 01:28:06;;;;;;;6.10;5.50;;;22.20;35.10;;;;;;4969174;28;20470;-57
2021/09/18 01:30:33;;;;;;;5.70;5.40;;;22.20;35.10;;;;;;4962782;28;20461;-59
2021/09/18 01:33:01;;;;;;;5.90;5.50;;;22.20;35.20;;;;;;4959719;28;20499;-58
2021/09/18 01:35:27;;;;;;;5.73;5.33;;;22.10;35.10;;;;;;4971017;28;20472;-57
2021/09/18 01:37:53;;;;;;;6.33;5.73;;;22.10;35.10;;;;;;4970442;28;20438;-53
2021/09/18 01:40:27;;;;;;;5.50;5.10;;;22.20;35.20;;;;;;4971661;28;20422;-59
2021/09/18 01:42:54;;;;;;;5.67;5.23;;;22.10;35.10;;;;;;4972506;28;20421;-58
2021/09/18 01:45:20;;;;;;;6.07;5.67;;;22.10;35.10;;;;;;4971934;28;20430;-56
2021/09/18 01:47:48;;;;;;;5.67;5.27;;;22.10;35.10;;;;;;4973846;28;20956;-57
2021/09/18 01:50:33;;;;;;;5.83;5.40;;;22.10;35.10;;;;;;4975880;28;20446;-56
2021/09/18 01:53:04;;;;;;;5.37;5.00;;;22.10;35.20;;;;;;4975537;28;20420;-57
2021/09/18 01:55:31;;;;;;;5.60;5.17;;;22.10;35.20;;;;;;4975768;28;20441;-55
2021/09/18 01:57:58;;;;;;;5.83;5.40;;;22.10;35.20;;;;;;4975332;28;21055;-56
2021/09/18 02:00:24;;;;;;;5.50;5.10;;;22.10;35.10;;;;;;4975333;28;20445;-58
2021/09/18 02:02:51;;;;;;;6.07;5.57;;;22.10;35.10;;;;;;4975461;28;20897;-57
2021/09/18 02:05:21;;;;;;;5.00;4.70;;;22.10;35.20;;;;;;4975702;28;20839;-55
2021/09/18 02:07:46;;;;;;;5.10;4.80;;;22.10;35.10;;;;;;4974842;28;20860;-58
2021/09/18 02:10:16;;;;;;;4.93;4.63;;;22.10;35.10;;;;;;4975456;28;20449;-58
2021/09/18 02:12:41;;;;;;;5.50;5.17;;;22.10;35.10;;;;;;4975701;28;20414;-57
2021/09/18 02:15:08;;;;;;;5.30;5.00;;;22.10;35.10;;;;;;4975129;28;20421;-55
2021/09/18 02:17:34;;;;;;;5.70;5.30;;;22.10;35.10;;;;;;4975187;28;20245;-57
2021/09/18 02:20:00;;;;;;;5.80;5.30;;;22.10;35.20;;;;;;4975164;28;20457;-56
2021/09/18 02:22:25;;;;;;;5.40;5.03;;;22.10;35.40;;;;;;4975118;28;20183;-54
2021/09/18 02:24:51;;;;;;;5.57;5.17;;;22.10;35.10;;;;;;4974863;28;20193;-58
2021/09/18 02:27:16;;;;;;;5.50;5.10;;;22.10;35.10;;;;;;4974850;28;20214;-56
2021/09/18 02:29:42;;;;;;;5.20;4.80;;;22.10;35.10;;;;;;4974803;28;20245;-57
2021/09/18 02:32:08;;;;;;;5.47;4.97;;;22.10;35.10;;;;;;4975222;28;20186;-57
2021/09/18 02:34:33;;;;;;;5.23;4.83;;;22.10;35.10;;;;;;4975015;28;20310;-57
2021/09/18 02:36:59;;;;;;;4.70;4.40;;;22.10;35.10;;;;;;4974452;28;20179;-58
2021/09/18 02:39:24;;;;;;;5.30;4.80;;;22.10;35.20;;;;;;4974758;28;20703;-57
2021/09/18 02:41:50;;;;;;;5.30;4.90;;;22.10;35.20;;;;;;4974955;28;20194;-57
2021/09/18 02:44:15;;;;;;;5.53;5.13;;;22.10;35.20;;;;;;4974463;28;20198;-58
2021/09/18 02:46:41;;;;;;;5.57;5.20;;;22.10;35.20;;;;;;4974517;28;20213;-58
2021/09/18 02:49:06;;;;;;;5.73;5.20;;;22.10;35.30;;;;;;4974696;28;20206;-54
2021/09/18 02:51:32;;;;;;;5.63;5.27;;;22.10;35.10;;;;;;4974382;28;20645;-55
2021/09/18 02:53:59;;;;;;;4.53;4.23;;;22.10;35.10;;;;;;4974557;28;20179;-56
2021/09/18 02:56:25;;;;;;;5.50;5.10;;;22.10;35.20;;;;;;4974578;28;20716;-57
2021/09/18 02:58:50;;;;;;;4.70;4.40;;;22.10;35.10;;;;;;4973099;28;20438;-55
2021/09/18 03:01:16;;;;;;;5.73;5.33;;;22.10;35.10;;;;;;4974621;28;20609;-56
2021/09/18 03:03:41;;;;;;;6.03;5.63;;;22.10;35.10;;;;;;4974613;28;20677;-59
2021/09/18 03:06:07;;;;;;;4.83;4.53;;;22.10;35.10;;;;;;4974108;28;20175;-57
2021/09/18 03:08:32;;;;;;;5.60;5.30;;;22.00;35.70;;;;;;4973971;28;20202;-55
2021/09/18 03:10:58;;;;;;;5.47;5.07;;;22.10;35.10;;;;;;4974249;28;20182;-55
2021/09/18 03:13:23;;;;;;;5.17;4.80;;;22.00;35.10;;;;;;4974001;28;20717;-57
2021/09/18 03:15:49;;;;;;;5.83;5.30;;;22.00;35.00;;;;;;4974219;28;20194;-56
2021/09/18 03:18:14;;;;;;;6.10;5.60;;;22.10;35.10;;;;;;4974123;28;20195;-54
2021/09/18 03:20:40;;;;;;;5.30;4.90;;;22.00;35.00;;;;;;4973653;28;20567;-56
2021/09/18 03:23:05;;;;;;;4.80;4.50;;;22.00;35.00;;;;;;4974044;28;20178;-57
2021/09/18 03:25:31;;;;;;;4.90;4.60;;;22.00;35.00;;;;;;4974101;28;20201;-57
2021/09/18 03:27:56;;;;;;;6.23;5.70;;;22.00;35.00;;;;;;4973286;28;20218;-57
2021/09/18 03:30:22;;;;;;;4.87;4.47;;;22.00;35.00;;;;;;4974060;28;20206;-57
2021/09/18 03:32:48;;;;;;;5.50;5.10;;;22.00;35.00;;;;;;4973929;28;20228;-58
2021/09/18 03:35:13;;;;;;;5.53;5.13;;;22.00;35.00;;;;;;4973865;28;20641;-60
2021/09/18 03:37:38;;;;;;;5.23;4.93;;;22.00;34.80;;;;;;4973233;28;20213;-59
2021/09/18 03:40:08;;;;;;;4.73;4.43;;;22.00;35.00;;;;;;4974036;28;20185;-59
2021/09/18 03:42:34;;;;;;;5.03;4.63;;;22.00;34.90;;;;;;4973967;28;20700;-55
2021/09/18 03:45:00;;;;;;;5.33;5.00;;;22.00;34.90;;;;;;4973545;28;20418;-57
2021/09/18 03:47:25;;;;;;;5.63;5.00;;;22.00;34.90;;;;;;4973277;28;21066;-55
2021/09/18 03:49:51;;;;;;;5.30;5.00;;;22.00;35.00;;;;;;4973651;28;20178;-56
2021/09/18 03:52:17;;;;;;;5.00;4.70;;;22.00;35.00;;;;;;4973115;28;20189;-56
2021/09/18 03:54:42;;;;;;;4.57;4.30;;;22.00;35.00;;;;;;4973583;28;20175;-56
2021/09/18 03:57:08;;;;;;;4.50;4.13;;;22.00;34.90;;;;;;4973232;28;20641;-57
2021/09/18 03:59:33;;;;;;;4.67;4.37;;;22.00;34.90;;;;;;4973214;28;20199;-58
2021/09/18 04:01:59;;;;;;;5.10;4.80;;;22.00;34.90;;;;;;4972187;28;20186;-56
2021/09/18 04:04:24;;;;;;;4.80;4.50;;;22.00;35.00;;;;;;4973234;28;20536;-56
2021/09/18 04:06:50;;;;;;;4.87;4.57;;;22.00;34.90;;;;;;4972708;28;20218;-56
2021/09/18 04:09:15;;;;;;;4.60;4.30;;;22.00;34.90;;;;;;4973626;28;20207;-57
2021/09/18 04:11:41;;;;;;;5.50;5.00;;;22.00;35.00;;;;;;4973186;28;20200;-56
2021/09/18 04:14:07;;;;;;;5.10;4.70;;;22.00;35.10;;;;;;4972981;28;20174;-57
2021/09/18 04:16:32;;;;;;;5.10;4.80;;;22.00;35.10;;;;;;4973422;28;20669;-57
2021/09/18 04:18:58;;;;;;;5.30;4.67;;;22.00;35.10;;;;;;4972869;28;20213;-59
2021/09/18 04:21:24;;;;;;;5.00;4.60;;;22.00;35.20;;;;;;4972753;28;20607;-59
2021/09/18 04:23:49;;;;;;;5.50;5.20;;;22.00;35.30;;;;;;4973024;28;20277;-57
2021/09/18 04:26:15;;;;;;;5.20;4.70;;;22.00;35.50;;;;;;4973050;28;20178;-56
2021/09/18 04:28:41;;;;;;;4.90;4.50;;;22.00;35.40;;;;;;4972446;28;20661;-54
2021/09/18 04:31:07;;;;;;;6.63;5.37;;;22.00;35.60;;;;;;4973216;28;20183;-57
2021/09/18 04:33:32;;;;;;;5.10;4.60;;;22.00;35.80;;;;;;4973222;28;20654;-59
2021/09/18 04:35:58;;;;;;;5.97;5.43;;;22.00;35.60;;;;;;4972395;28;20175;-62
2021/09/18 04:38:24;;;;;;;5.70;5.30;;;22.00;35.60;;;;;;4972890;28;20199;-61
2021/09/18 04:40:49;;;;;;;6.30;4.63;;;22.00;35.60;;;;;;4972945;28;20237;-61
2021/09/18 04:43:14;;;;;;;4.63;4.33;;;22.00;35.60;;;;;;4972818;28;20185;-62
2021/09/18 04:45:40;;;;;;;5.70;5.20;;;22.00;35.50;;;;;;4972963;28;20175;-62
2021/09/18 04:48:05;;;;;;;5.17;4.87;;;22.00;35.30;;;;;;4972711;28;20253;-62
2021/09/18 04:50:31;;;;;;;5.33;4.97;;;22.00;35.40;;;;;;4972494;28;20179;-62
2021/09/18 04:52:57;;;;;;;5.30;4.90;;;22.00;35.30;;;;;;4971715;28;20576;-61
2021/09/18 04:55:22;;;;;;;6.30;4.97;;;22.00;35.20;;;;;;4972796;28;20504;-61
2021/09/18 04:57:48;;;;;;;5.30;4.90;;;22.00;35.70;;;;;;4972402;28;20331;-59
2021/09/18 05:00:14;;;;;;;5.53;5.03;;;22.00;35.20;;;;;;4972760;28;20183;-57
2021/09/18 05:02:39;;;;;;;4.40;4.00;;;22.10;35.30;;;;;;4972775;28;20174;-59
2021/09/18 05:05:05;;;;;;;5.20;4.90;;;22.00;35.30;;;;;;4972506;28;20183;-61
2021/09/18 05:07:31;;;;;;;4.77;4.40;;;22.10;35.30;;;;;;4972229;28;20252;-61
2021/09/18 05:09:57;;;;;;;4.63;4.33;;;22.10;35.20;;;;;;4972817;28;20411;-56
2021/09/18 05:12:23;;;;;;;4.63;4.30;;;22.00;35.10;;;;;;4972534;28;20186;-61
2021/09/18 05:14:48;;;;;;;5.77;5.37;;;22.10;35.10;;;;;;4972698;28;20198;-61
2021/09/18 05:17:14;;;;;;;4.87;4.47;;;22.10;35.10;;;;;;4972264;28;20414;-62
2021/09/18 05:19:40;;;;;;;5.43;5.13;;;22.00;35.10;;;;;;4971904;28;20187;-56
2021/09/18 05:22:06;;;;;;;6.83;4.80;;;22.00;35.10;;;;;;4973292;28;20732;-64
2021/09/18 05:24:31;;;;;;;5.60;5.10;;;22.00;35.00;;;;;;4991647;28;20275;-63
2021/09/18 05:26:57;;;;;;;5.03;4.63;;;22.00;35.00;;;;;;4975631;28;20533;-60
2021/09/18 05:29:23;;;;;;;5.63;5.10;;;22.00;34.90;;;;;;4976370;28;20669;-58
2021/09/18 05:31:49;;;;;;;5.10;4.70;;;22.00;34.80;;;;;;4964382;28;20183;-61
2021/09/18 05:34:14;;;;;;;5.37;4.97;;;22.00;34.70;;;;;;4956495;28;20424;-60
2021/09/18 05:36:40;;;;;;;4.87;4.57;;;22.00;34.70;;;;;;4956772;28;20207;-57
2021/09/18 05:39:05;;;;;;;5.50;5.10;;;22.00;34.60;;;;;;4956509;28;20769;-59
2021/09/18 05:41:31;;;;;;;4.97;4.57;;;22.00;34.60;;;;;;4956676;28;20183;-62
2021/09/18 05:43:57;;;;;;;4.90;4.50;;;22.00;34.50;;;;;;4956607;28;20176;-53
2021/09/18 05:46:22;;;;;;;4.77;4.47;;;22.00;34.50;;;;;;4970106;28;20181;-62
2021/09/18 05:48:48;;;;;;;4.80;4.50;;;22.00;34.30;;;;;;4975145;28;20194;-61
2021/09/18 05:51:13;;;;;;;4.77;4.47;;;22.00;34.30;;;;;;4975979;28;20214;-61
2021/09/18 05:53:39;;;;;;;5.20;4.80;;;22.00;34.30;;;;;;4975702;28;20221;-62
2021/09/18 05:56:05;;;;;;;5.30;5.00;;;22.00;34.30;;;;;;4975440;28;20167;-63
2021/09/18 05:58:30;;;;;;;5.00;4.70;;;22.00;34.30;;;;;;4975413;28;20194;-58
2021/09/18 06:00:56;;;;;;;5.30;4.80;;;22.00;34.30;;;;;;4975701;28;20217;-61
2021/09/18 06:03:21;;;;;;;6.63;5.70;;;22.00;34.30;;;;;;4975426;28;20206;-57
2021/09/18 06:05:47;;;;;;;6.10;5.50;;;22.00;34.30;;;;;;4975510;28;20210;-59
2021/09/18 06:08:13;;;;;;;5.40;5.00;;;22.00;35.10;;;;;;4975284;28;20269;-57
2021/09/18 06:10:38;;;;;;;5.10;4.70;;;22.00;34.50;;;;;;4975682;28;20254;-56
2021/09/18 06:13:04;;;;;;;6.70;5.70;;;22.00;34.40;;;;;;4975514;28;20177;-54
2021/09/18 06:15:30;;;;;;;5.73;5.27;;;22.00;34.50;;;;;;4975388;28;20512;-59
2021/09/18 06:17:55;;;;;;;6.10;5.17;;;22.00;34.80;;;;;;4975146;28;20241;-57
2021/09/18 06:20:21;;;;;;;6.63;5.40;;;22.00;34.90;;;;;;4974962;28;20590;-56
2021/09/18 06:22:46;;;;;;;6.03;5.43;;;22.00;35.60;;;;;;4974979;28;20179;-57
2021/09/18 06:25:12;;;;;;;7.67;5.70;;;22.00;34.90;;;;;;4974040;28;20198;-57
2021/09/18 06:27:41;;;;;;;9.20;6.17;;;22.00;34.90;;;;;;4974369;28;20214;-59
2021/09/18 06:30:09;;;;;;;7.20;6.40;;;22.00;34.80;;;;;;4974328;28;20171;-54
2021/09/18 06:32:34;;;;;;;6.50;5.90;;;22.00;34.80;;;;;;4974930;28;20410;-59
2021/09/18 06:35:00;;;;;;;6.77;5.77;;;21.90;34.70;;;;;;4974843;28;20414;-58
2021/09/18 06:37:25;;;;;;;7.30;6.10;;;22.00;34.70;;;;;;4974772;28;20178;-57
2021/09/18 06:39:51;;;;;;;7.27;6.07;;;21.90;34.70;;;;;;4974835;28;20181;-57
2021/09/18 06:42:16;;;;;;;8.57;6.50;;;21.90;34.70;;;;;;4974866;28;20186;-59
2021/09/18 06:44:42;;;;;;;6.20;5.60;;;21.90;34.70;;;;;;4974937;28;20178;-58
2021/09/18 06:47:08;;;;;;;7.57;6.23;;;21.90;34.70;;;;;;4974422;28;20248;-57
2021/09/18 06:49:33;;;;;;;6.33;5.73;;;21.90;34.80;;;;;;4975217;28;20183;-57
2021/09/18 06:51:59;;;;;;;6.77;6.17;;;21.90;34.60;;;;;;4974721;28;20418;-57
2021/09/18 06:54:25;;;;;;;10.60;5.50;;;21.90;34.70;;;;;;4974788;28;20170;-56
2021/09/18 06:56:50;;;;;;;8.60;5.40;;;21.90;34.70;;;;;;4974457;28;20426;-57
2021/09/18 06:59:16;;;;;;;6.07;5.30;;;21.90;34.60;;;;;;4974495;28;20213;-57
2021/09/18 07:01:42;;;;;;;8.37;6.30;;;21.90;34.70;;;;;;4974526;28;20229;-56
2021/09/18 07:04:08;;;;;;;6.90;5.43;;;21.90;34.60;;;;;;4974355;28;20186;-58
2021/09/18 07:06:34;;;;;;;6.83;5.23;;;21.90;34.70;;;;;;4974396;28;20508;-59
2021/09/18 07:08:59;;;;;;;7.33;5.57;;;21.90;34.70;;;;;;4974250;28;20241;-60
2021/09/18 07:11:24;;;;;;;6.40;5.90;;;21.90;34.70;;;;;;4974403;28;20251;-58
2021/09/18 07:13:50;;;;;;;5.93;5.53;;;21.90;34.70;;;;;;4974221;28;20634;-57
2021/09/18 07:16:15;;;;;;;6.20;5.60;;;21.90;34.70;;;;;;4974342;28;20243;-57
2021/09/18 07:18:41;;;;;;;5.70;5.20;;;21.90;34.70;;;;;;4973722;28;20313;-59
2021/09/18 07:21:06;;;;;;;6.70;6.00;;;21.90;34.70;;;;;;4974026;28;20191;-58
2021/09/18 07:23:32;;;;;;;5.47;5.00;;;21.90;34.70;;;;;;4974094;28;20178;-57
2021/09/18 07:25:58;;;;;;;6.17;5.67;;;21.90;34.70;;;;;;4974106;28;20225;-59
2021/09/18 07:28:23;;;;;;;6.20;5.70;;;21.90;34.60;;;;;;4973653;28;20230;-56
2021/09/18 07:30:49;;;;;;;6.23;5.63;;;21.90;34.70;;;;;;4974015;28;20182;-57
2021/09/18 07:33:14;;;;;;;5.73;5.30;;;21.90;34.70;;;;;;4973729;28;20182;-56
2021/09/18 07:35:40;;;;;;;6.53;5.60;;;21.90;34.70;;;;;;4973958;28;20262;-57
2021/09/18 07:38:05;;;;;;;6.23;5.70;;;21.90;34.70;;;;;;4973497;28;20198;-57
2021/09/18 07:40:34;;;;;;;5.40;5.00;;;21.90;34.70;;;;;;4974076;28;20229;-55
2021/09/18 07:43:00;;;;;;;6.00;5.50;;;21.90;34.70;;;;;;4973722;28;20178;-57
2021/09/18 07:45:26;;;;;;;5.60;5.20;;;21.90;34.70;;;;;;4973233;28;20931;-57
2021/09/18 07:47:52;;;;;;;5.97;5.57;;;21.90;34.70;;;;;;4973039;28;20480;-57
2021/09/18 07:50:17;;;;;;;5.87;5.47;;;21.90;34.80;;;;;;4973884;28;20183;-55
2021/09/18 07:52:43;;;;;;;7.10;6.50;;;21.80;34.90;;;;;;4973710;28;20207;-56
2021/09/18 07:55:09;;;;;;;7.10;6.50;;;21.80;33.60;;;;;;4973658;28;20183;-57
2021/09/18 07:57:36;;;;;;;7.43;6.93;;;21.80;33.30;;;;;;4973381;28;20198;-56
2021/09/18 08:00:06;;;;;;;7.33;6.73;;;21.70;32.40;;;;;;4973586;28;20813;-56
2021/09/18 08:02:31;;;;;;;11.10;7.13;;;21.60;32.30;;;;;;4973306;28;20414;-57
2021/09/18 08:04:57;;;;;;;8.67;7.10;;;21.60;32.60;;;;;;4973370;28;20409;-57
2021/09/18 08:07:22;;;;;;;8.80;8.10;;;21.60;32.40;;;;;;4973067;28;20293;-58
2021/09/18 08:09:49;;;;;;;8.50;7.90;;;21.50;32.00;;;;;;4973410;28;20185;-57
2021/09/18 08:12:16;;;;;;;7.53;6.73;;;21.50;31.80;;;;;;4973206;28;20190;-58
2021/09/18 08:14:42;;;;;;;7.97;7.33;;;21.50;31.80;;;;;;4973255;28;20414;-59
2021/09/18 08:17:07;;;;;;;7.13;6.60;;;21.50;32.30;;;;;;4973037;28;20422;-58
2021/09/18 08:19:33;;;;;;;7.40;6.80;;;21.40;32.50;;;;;;4988187;28;20597;-57
2021/09/18 08:21:59;;;;;;;6.87;6.37;;;21.40;32.60;;;;;;4973144;28;20198;-59
2021/09/18 08:24:24;;;;;;;7.00;6.50;;;21.40;32.60;;;;;;4973235;28;20183;-56
2021/09/18 08:26:50;;;;;;;7.63;7.03;;;21.40;32.60;;;;;;4972803;28;20203;-55
2021/09/18 08:29:15;;;;;;;7.63;6.90;;;21.40;32.50;;;;;;4972991;28;20194;-57
2021/09/18 08:31:41;;;;;;;8.43;6.03;;;21.40;32.60;;;;;;4972877;28;20178;-57
2021/09/18 08:34:07;;;;;;;6.60;6.10;;;21.50;32.70;;;;;;4973112;28;20175;-58
2021/09/18 08:36:33;;;;;;;6.17;5.70;;;21.50;32.60;;;;;;4972979;28;20179;-57
2021/09/18 08:38:58;;;;;;;6.33;5.80;;;21.50;32.50;;;;;;4972668;28;20198;-58
2021/09/18 08:41:25;;;;;;;6.47;5.97;;;21.50;32.70;;;;;;4972850;28;20243;-57
2021/09/18 08:43:50;;;;;;;6.50;6.00;;;21.50;32.60;;;;;;4972815;28;20181;-56
2021/09/18 08:46:18;;;;;;;6.63;5.83;;;21.50;32.60;;;;;;4972335;28;20604;-58
2021/09/18 08:48:44;;;;;;;6.40;5.80;;;21.40;32.50;;;;;;4972462;28;20218;-58
2021/09/18 08:51:10;;;;;;;6.10;5.70;;;21.50;32.70;;;;;;4972719;28;20418;-57
2021/09/18 08:53:36;;;;;;;6.00;5.40;;;21.50;32.70;;;;;;4972753;28;20414;-58
2021/09/18 08:56:02;;;;;;;6.13;5.73;;;21.50;32.70;;;;;;4962999;28;20595;-58
2021/09/18 08:58:27;;;;;;;6.90;5.47;;;21.50;32.70;;;;;;4958375;28;20513;-56
2021/09/18 09:00:59;;;;;;;5.93;5.40;;;21.50;32.70;;;;;;4970790;28;20194;-55
2021/09/18 09:03:27;;;;;;;6.70;6.17;;;21.50;32.80;;;;;;4959873;28;20194;-58
2021/09/18 09:06:06;;;;;;;6.47;6.03;;;21.50;32.60;;;;;;4964529;28;20552;-59
2021/09/18 09:08:32;;;;;;;6.47;6.03;;;21.50;33.40;;;;;;4971429;28;20469;-58
2021/09/18 09:10:58;;;;;;;6.00;5.50;;;21.50;32.70;;;;;;4970705;28;20543;-57
2021/09/18 09:13:25;;;;;;;6.17;5.37;;;21.50;32.80;;;;;;4976072;28;20964;-58
2021/09/18 09:16:06;;;;;;;6.23;5.77;;;21.50;32.90;;;;;;4975351;28;20425;-58
2021/09/18 09:18:39;;;;;;;5.60;5.13;;;21.50;32.90;;;;;;4975384;28;20457;-57
2021/09/18 09:21:25;;;;;;;6.13;5.43;;;21.50;33.00;;;;;;4969628;28;20529;-58
2021/09/18 09:24:12;;;;;;;5.63;5.13;;;21.60;32.90;;;;;;4967726;28;20778;-57
2021/09/18 09:26:40;;;;;;;5.80;5.40;;;21.60;32.70;;;;;;4975700;28;20883;-56
2021/09/18 09:29:06;;;;;;;5.40;5.00;;;21.60;32.60;;;;;;4975889;28;20999;-58
2021/09/18 09:31:35;;;;;;;6.00;5.30;;;21.60;32.60;;;;;;4967994;28;20426;-59
2021/09/18 09:34:11;;;;;;;6.70;6.17;;;21.70;32.70;;;;;;4975887;28;20830;-58
2021/09/18 09:36:48;;;;;;;7.30;6.70;;;21.70;32.60;;;;;;4975844;28;20832;-58
2021/09/18 09:39:21;;;;;;;7.60;6.37;;;21.70;32.60;;;;;;4975963;28;20430;-56
2021/09/18 09:41:51;;;;;;;6.40;5.80;;;21.70;32.50;;;;;;4971567;28;20423;-58
2021/09/18 09:44:22;;;;;;;6.90;6.30;;;21.70;32.50;;;;;;4973942;28;20441;-57
2021/09/18 09:47:10;;;;;;;6.47;5.97;;;21.70;32.60;;;;;;4970635;28;20561;-57
2021/09/18 09:49:44;;;;;;;6.40;5.80;;;21.80;32.70;;;;;;4974636;28;20528;-58
2021/09/18 09:52:22;;;;;;;6.77;5.23;;;21.80;32.60;;;;;;4970108;28;20817;-51
2021/09/18 09:54:48;;;;;;;5.77;5.33;;;21.80;32.80;;;;;;4974935;28;20471;-58
2021/09/18 09:57:14;;;;;;;5.53;5.13;;;21.80;32.80;;;;;;4967303;28;20414;-58
2021/09/18 09:59:41;;;;;;;6.13;5.63;;;21.80;32.80;;;;;;4966222;28;20917;-58
2021/09/18 10:02:09;;;;;;;4.97;4.50;;;21.80;32.60;;;;;;4974170;28;20441;-55
2021/09/18 10:04:35;;;;;;;5.67;5.17;;;21.90;32.50;;;;;;4973284;28;21168;-58
2021/09/18 10:07:01;;;;;;;5.67;5.23;;;21.90;32.20;;;;;;4973777;28;20493;-58
2021/09/18 10:09:28;;;;;;;5.13;4.60;;;21.90;31.50;;;;;;4966682;28;20517;-60
2021/09/18 10:11:56;;;;;;;4.67;4.37;;;22.00;32.30;;;;;;4970040;28;20431;-61
2021/09/18 10:14:25;;;;;;;4.90;4.50;;;22.00;31.80;;;;;;4971885;28;20414;-59
2021/09/18 10:16:53;;;;;;;4.63;4.33;;;22.10;32.20;;;;;;4968617;28;20436;-59
2021/09/18 10:19:31;;;;;;;4.27;4.07;;;22.10;32.20;;;;;;4967009;28;20496;-61
2021/09/18 10:24:42;;;;;;;4.90;4.50;;;22.20;32.40;;;;;;4974898;28;20418;-59
2021/09/18 10:27:21;;;;;;;3.90;3.60;;;22.20;32.10;;;;;;4971653;28;20477;-59
2021/09/18 10:29:48;;;;;;;4.70;4.07;;;22.30;31.90;;;;;;4971453;28;20167;-60
2021/09/18 10:32:15;;;;;;;4.30;4.00;;;22.30;31.90;;;;;;4958973;28;20820;-56
2021/09/18 10:34:41;;;;;;;4.67;4.37;;;22.40;32.00;;;;;;4958567;28;20429;-63
2021/09/18 10:37:07;;;;;;;3.93;3.63;;;22.40;32.00;;;;;;4974730;28;20418;-62
2021/09/18 10:39:32;;;;;;;4.37;4.07;;;22.40;32.00;;;;;;4974982;28;20445;-61
2021/09/18 10:42:00;;;;;;;6.07;4.30;;;22.50;32.00;;;;;;4974862;28;20414;-61
2021/09/18 10:44:50;;;;;;;4.00;3.70;;;22.50;32.00;;;;;;4975021;28;20195;-62
2021/09/18 10:47:42;;;;;;;4.00;3.70;;;22.50;32.00;;;;;;4974396;28;20457;-59
2021/09/18 10:50:24;;;;;;;4.13;3.83;;;22.60;32.00;;;;;;4972521;28;20418;-62
2021/09/18 10:53:07;;;;;;;4.00;3.73;;;22.60;31.70;;;;;;4973574;28;20813;-62
2021/09/18 10:55:53;;;;;;;3.57;3.30;;;22.60;31.50;;;;;;4969534;28;20422;-62
2021/09/18 10:58:18;;;;;;;3.30;3.10;;;22.60;31.40;;;;;;4970992;28;20464;-60
2021/09/18 11:00:50;;;;;;;3.33;3.03;;;22.70;31.20;;;;;;4969861;28;20474;-62
2021/09/18 11:03:31;;;;;;;3.37;3.07;;;22.70;30.60;;;;;;4971372;28;20190;-63
2021/09/18 11:05:58;;;;;;;8.03;3.43;;;22.70;30.10;;;;;;4974557;28;20453;-63
2021/09/18 11:08:26;;;;;;;4.40;3.10;;;22.70;30.10;;;;;;4966103;28;20490;-62
2021/09/18 11:10:55;;;;;;;3.40;3.20;;;22.70;30.20;;;;;;4974572;28;20501;-61
2021/09/18 11:13:23;;;;;;;2.80;2.60;;;22.80;30.40;;;;;;4974481;28;20406;-63
2021/09/18 11:15:52;;;;;;;3.47;3.27;;;22.80;30.50;;;;;;4974166;28;20778;-62
2021/09/18 11:18:43;;;;;;;4.03;3.70;;;22.80;30.60;;;;;;4973128;28;20434;-62
2021/09/18 11:21:40;;;;;;;3.17;2.97;;;22.80;30.60;;;;;;4972615;28;20438;-60
2021/09/18 11:24:15;;;;;;;4.10;3.70;;;22.80;30.50;;;;;;4970317;28;20433;-62
2021/09/18 11:26:49;;;;;;;3.50;3.07;;;22.80;30.40;;;;;;4973778;28;20453;-62
2021/09/18 11:29:28;;;;;;;3.40;3.10;;;22.80;30.00;;;;;;4973889;28;20426;-63
2021/09/18 11:32:13;;;;;;;3.30;3.00;;;22.90;30.10;;;;;;4973945;28;20774;-61
2021/09/18 11:34:46;;;;;;;3.80;3.50;;;22.80;30.10;;;;;;4973922;28;20494;-62
2021/09/18 11:37:21;;;;;;;4.33;4.03;;;22.90;30.20;;;;;;4973719;28;20406;-63
2021/09/18 11:40:06;;;;;;;3.43;3.23;;;22.90;30.20;;;;;;4973786;28;20480;-63
2021/09/18 11:42:40;;;;;;;3.80;3.50;;;22.90;30.40;;;;;;4971179;28;20445;-62
2021/09/18 11:45:15;;;;;;;3.50;3.27;;;22.90;30.50;;;;;;4973634;28;20515;-62
2021/09/18 11:47:44;;;;;;;3.60;3.40;;;22.90;30.60;;;;;;4973476;28;20593;-62
2021/09/18 11:50:17;;;;;;;3.50;3.30;;;22.90;30.60;;;;;;4973607;28;20908;-62
2021/09/18 11:52:42;;;;;;;3.77;3.57;;;22.90;30.50;;;;;;4973081;28;20497;-57
2021/09/18 11:55:28;;;;;;;3.90;3.60;;;22.90;30.20;;;;;;4965996;28;21209;-56
2021/09/18 11:58:14;;;;;;;3.70;3.50;;;22.90;30.00;;;;;;4959170;28;20207;-58
2021/09/18 12:01:04;;;;;;;4.70;3.40;;;22.90;29.90;;;;;;4965409;28;20789;-57
2021/09/18 12:03:43;;;;;;;3.60;3.33;;;22.90;30.00;;;;;;4968586;28;20799;-57
2021/09/18 12:06:19;;;;;;;3.57;3.30;;;23.00;30.20;;;;;;4973136;28;20418;-58
2021/09/18 12:08:48;;;;;;;3.83;3.20;;;23.00;30.00;;;;;;4970474;28;20489;-57
2021/09/18 12:11:17;;;;;;;4.13;3.27;;;23.00;29.80;;;;;;4953255;28;20415;-58
2021/09/18 12:13:45;;;;;;;6.53;3.13;;;23.00;29.80;;;;;;4951294;28;20418;-57
2021/09/18 12:16:13;;;;;;;3.53;3.23;;;23.00;29.90;;;;;;4945533;28;20407;-56
2021/09/18 12:18:41;;;;;;;3.67;3.47;;;23.00;30.00;;;;;;4946359;28;20446;-58
2021/09/18 12:21:10;;;;;;;4.80;4.10;;;23.00;30.00;;;;;;4950770;28;20929;-58
2021/09/18 12:23:41;;;;;;;4.00;3.60;;;23.00;30.00;;;;;;4952266;28;20453;-56
2021/09/18 12:26:07;;;;;;;3.73;3.53;;;23.00;30.00;;;;;;4952629;28;20964;-58
2021/09/18 12:28:34;;;;;;;3.43;3.20;;;23.00;30.00;;;;;;4953411;28;20462;-59
2021/09/18 12:31:11;;;;;;;3.63;3.43;;;23.10;30.00;;;;;;4953726;28;20264;-59
2021/09/18 12:33:37;;;;;;;5.63;3.27;;;23.00;29.90;;;;;;4951683;28;20421;-56
2021/09/18 12:36:04;;;;;;;3.27;3.07;;;23.10;30.00;;;;;;4970708;28;20414;-57
2021/09/18 12:38:30;;;;;;;3.70;3.50;;;23.10;30.00;;;;;;4971851;28;20207;-59
2021/09/18 12:41:06;;;;;;;4.30;4.00;;;23.10;30.00;;;;;;4969102;28;20430;-58
2021/09/18 12:43:34;;;;;;;4.00;3.70;;;23.10;30.00;;;;;;4952668;28;20230;-58
2021/09/18 12:46:18;;;;;;;4.20;3.90;;;23.10;30.00;;;;;;4952885;28;20431;-57
2021/09/18 12:48:58;;;;;;;4.27;3.87;;;23.10;30.00;;;;;;4952403;29;20502;-58
2021/09/18 12:51:25;;;;;;;4.37;4.07;;;23.10;30.00;;;;;;4952666;28;20453;-57
2021/09/18 12:53:52;;;;;;;4.17;3.87;;;23.10;30.10;;;;;;4952803;28;20415;-58